createdAt,value
2017-06-16T00:00:24.955Z,8.31
2017-06-16T00:01:24.945Z,8.29
2017-06-16T00:02:24.940Z,8.42
2017-06-16T00:03:24.928Z,8.43
2017-06-16T00:04:24.918Z,8.42
2017-06-16T00:05:24.910Z,8.49
2017-06-16T00:06:24.898Z,8.47
2017-06-16T00:07:24.888Z,8.45
2017-06-16T00:08:24.874Z,8.39
2017-06-16T00:09:24.867Z,8.49
2017-06-16T00:10:24.860Z,8.39
2017-06-16T00:11:24.854Z,8.5
2017-06-16T00:12:24.840Z,8.46
2017-06-16T00:13:24.525Z,8.49
2017-06-16T00:14:24.819Z,8.45
2017-06-16T00:15:24.809Z,8.43
2017-06-16T00:16:24.803Z,8.42
2017-06-16T00:17:24.789Z,8.4
2017-06-16T00:18:24.783Z,8.45
2017-06-16T00:19:24.775Z,8.49
2017-06-16T00:20:24.759Z,8.42
2017-06-16T00:21:24.752Z,8.34
2017-06-16T00:22:24.738Z,8.36
2017-06-16T00:23:24.730Z,8.32
2017-06-16T00:24:24.722Z,8.34
2017-06-16T00:25:24.714Z,8.27
2017-06-16T00:26:24.697Z,8.31
2017-06-16T00:27:24.691Z,8.32
2017-06-16T00:28:24.685Z,8.22
2017-06-16T00:29:24.671Z,8.27
2017-06-16T00:30:24.655Z,8.13
2017-06-16T00:31:24.654Z,8.13
2017-06-16T00:32:24.641Z,8.1
2017-06-16T00:33:24.630Z,7.99
2017-06-16T00:34:24.321Z,7.99
2017-06-16T00:35:24.616Z,8.03
2017-06-16T00:36:24.602Z,8
2017-06-16T00:37:24.587Z,8.02
2017-06-16T00:38:24.584Z,8.06
2017-06-16T00:39:24.572Z,8.02
2017-06-16T00:40:24.561Z,8.02
2017-06-16T00:41:24.551Z,8.17
2017-06-16T00:42:24.538Z,8.02
2017-06-16T00:43:24.527Z,8.13
2017-06-16T00:44:23.917Z,8.12
2017-06-16T00:45:24.505Z,7.99
2017-06-16T00:46:24.499Z,8.02
2017-06-16T00:47:24.490Z,8.12
2017-06-16T00:48:24.473Z,8.03
2017-06-16T00:49:24.468Z,8.02
2017-06-16T00:50:24.457Z,8.03
2017-06-16T00:51:24.446Z,7.99
2017-06-16T00:52:24.137Z,8
2017-06-16T00:53:24.425Z,7.86
2017-06-16T00:54:24.415Z,7.88
2017-06-16T00:55:24.406Z,7.96
2017-06-16T00:56:24.400Z,8.02
2017-06-16T00:57:24.087Z,7.96
2017-06-16T00:58:24.374Z,8.02
2017-06-16T00:59:24.366Z,7.94
2017-06-16T01:00:24.353Z,7.92
2017-06-16T01:01:24.347Z,7.96
2017-06-16T01:02:24.330Z,7.95
2017-06-16T01:03:24.324Z,7.88
2017-06-16T01:04:24.312Z,7.89
2017-06-16T01:05:24.300Z,7.84
2017-06-16T01:06:24.293Z,7.92
2017-06-16T01:07:24.284Z,7.91
2017-06-16T01:08:24.272Z,7.79
2017-06-16T01:09:24.261Z,7.69
2017-06-16T01:10:24.252Z,7.79
2017-06-16T01:11:24.263Z,7.85
2017-06-16T01:12:24.232Z,7.86
2017-06-16T01:13:24.217Z,7.91
2017-06-16T01:14:24.210Z,7.89
2017-06-16T01:15:24.199Z,7.88
2017-06-16T01:16:24.184Z,7.84
2017-06-16T01:17:24.173Z,7.77
2017-06-16T01:18:24.165Z,7.79
2017-06-16T01:19:24.154Z,7.85
2017-06-16T01:20:24.145Z,7.86
2017-06-16T01:21:24.134Z,7.81
2017-06-16T01:22:24.120Z,7.79
2017-06-16T01:23:24.115Z,7.82
2017-06-16T01:24:24.102Z,7.82
2017-06-16T01:25:23.790Z,7.84
2017-06-16T01:26:24.080Z,7.76
2017-06-16T01:27:24.072Z,7.79
2017-06-16T01:28:24.057Z,7.82
2017-06-16T01:29:24.044Z,7.89
2017-06-16T01:30:24.039Z,7.81
2017-06-16T01:31:24.024Z,7.79
2017-06-16T01:32:23.709Z,7.69
2017-06-16T01:33:24.003Z,7.84
2017-06-16T01:34:23.993Z,7.71
2017-06-16T01:35:23.984Z,7.76
2017-06-16T01:36:23.670Z,7.76
2017-06-16T01:37:23.961Z,7.73
2017-06-16T01:38:23.948Z,7.77
2017-06-16T01:39:23.941Z,7.74
2017-06-16T01:40:23.930Z,7.79
2017-06-16T01:41:23.915Z,7.71
2017-06-16T01:42:23.912Z,7.76
2017-06-16T01:43:23.599Z,7.74
2017-06-16T01:44:23.894Z,7.77
2017-06-16T01:45:23.573Z,7.71
2017-06-16T01:46:23.862Z,7.58
2017-06-16T01:47:23.857Z,7.6
2017-06-16T01:48:23.843Z,7.54
2017-06-16T01:49:23.833Z,7.57
2017-06-16T01:50:23.521Z,7.62
2017-06-16T01:51:23.809Z,7.63
2017-06-16T01:52:23.799Z,7.66
2017-06-16T01:53:23.788Z,7.57
2017-06-16T01:54:23.776Z,7.67
2017-06-16T01:55:23.767Z,7.69
2017-06-16T01:56:23.756Z,7.67
2017-06-16T01:57:23.746Z,7.63
2017-06-16T01:58:23.737Z,7.62
2017-06-16T01:59:23.421Z,7.69
2017-06-16T02:00:23.710Z,7.66
2017-06-16T02:01:23.703Z,7.6
2017-06-16T02:02:23.689Z,7.58
2017-06-16T02:03:23.683Z,7.55
2017-06-16T02:04:23.670Z,7.51
2017-06-16T02:05:23.659Z,7.52
2017-06-16T02:06:23.647Z,7.58
2017-06-16T02:07:23.637Z,7.48
2017-06-16T02:08:23.630Z,7.55
2017-06-16T02:09:23.616Z,7.57
2017-06-16T02:10:23.608Z,7.57
2017-06-16T02:11:23.594Z,7.54
2017-06-16T02:12:23.585Z,7.54
2017-06-16T02:13:23.573Z,7.55
2017-06-16T02:14:23.594Z,7.54
2017-06-16T02:15:23.551Z,7.44
2017-06-16T02:16:23.541Z,7.48
2017-06-16T02:17:23.525Z,7.52
2017-06-16T02:18:23.517Z,7.52
2017-06-16T02:19:23.504Z,7.42
2017-06-16T02:20:23.503Z,7.5
2017-06-16T02:21:23.482Z,7.36
2017-06-16T02:22:23.476Z,7.39
2017-06-16T02:23:23.462Z,7.37
2017-06-16T02:24:23.453Z,7.37
2017-06-16T02:25:23.444Z,7.36
2017-06-16T02:26:23.433Z,7.42
2017-06-16T02:27:23.416Z,7.41
2017-06-16T02:28:23.409Z,7.41
2017-06-16T02:29:23.395Z,7.32
2017-06-16T02:30:23.386Z,7.3
2017-06-16T02:31:23.375Z,7.32
2017-06-16T02:32:23.363Z,7.3
2017-06-16T02:33:23.356Z,7.27
2017-06-16T02:34:23.349Z,7.3
2017-06-16T02:35:23.330Z,7.24
2017-06-16T02:36:23.321Z,7.3
2017-06-16T02:37:23.320Z,7.26
2017-06-16T02:38:23.295Z,7.24
2017-06-16T02:39:23.288Z,7.16
2017-06-16T02:40:23.277Z,7.09
2017-06-16T02:41:23.263Z,7.05
2017-06-16T02:42:23.258Z,7.09
2017-06-16T02:43:23.242Z,7.14
2017-06-16T02:44:23.231Z,7.08
2017-06-16T02:45:23.222Z,6.99
2017-06-16T02:46:23.210Z,7.16
2017-06-16T02:47:22.897Z,7.12
2017-06-16T02:48:23.191Z,7.14
2017-06-16T02:49:23.177Z,7.12
2017-06-16T02:50:23.170Z,7.16
2017-06-16T02:51:23.156Z,7.05
2017-06-16T02:52:23.142Z,7.15
2017-06-16T02:53:23.131Z,7.04
2017-06-16T02:54:22.820Z,7.14
2017-06-16T02:55:23.107Z,7.04
2017-06-16T02:56:23.094Z,7.12
2017-06-16T02:57:22.787Z,7.09
2017-06-16T02:58:23.074Z,7.08
2017-06-16T02:59:23.063Z,7.11
2017-06-16T03:00:23.052Z,7.08
2017-06-16T03:01:23.038Z,6.86
2017-06-16T03:02:23.029Z,6.97
2017-06-16T03:03:23.021Z,7.07
2017-06-16T03:04:23.009Z,7.14
2017-06-16T03:05:22.994Z,7.01
2017-06-16T03:06:22.986Z,7.04
2017-06-16T03:07:22.972Z,6.94
2017-06-16T03:08:22.660Z,6.83
2017-06-16T03:09:22.951Z,6.86
2017-06-16T03:10:22.945Z,6.69
2017-06-16T03:11:22.627Z,6.75
2017-06-16T03:12:22.919Z,6.75
2017-06-16T03:13:22.905Z,6.76
2017-06-16T03:14:22.897Z,6.68
2017-06-16T03:15:22.883Z,6.71
2017-06-16T03:16:22.874Z,6.71
2017-06-16T03:17:22.863Z,6.73
2017-06-16T03:18:22.848Z,6.72
2017-06-16T03:19:22.842Z,6.61
2017-06-16T03:20:22.830Z,6.71
2017-06-16T03:21:22.817Z,6.73
2017-06-16T03:22:22.804Z,6.78
2017-06-16T03:23:22.796Z,6.72
2017-06-16T03:24:22.781Z,6.69
2017-06-16T03:25:22.770Z,6.73
2017-06-16T03:26:22.760Z,6.69
2017-06-16T03:27:22.748Z,6.79
2017-06-16T03:28:22.743Z,6.69
2017-06-16T03:29:22.725Z,6.81
2017-06-16T03:30:22.720Z,6.81
2017-06-16T03:31:22.704Z,6.83
2017-06-16T03:32:22.701Z,6.83
2017-06-16T03:33:22.686Z,6.86
2017-06-16T03:34:22.673Z,6.79
2017-06-16T03:35:22.668Z,6.69
2017-06-16T03:36:22.650Z,6.81
2017-06-16T03:37:22.638Z,6.82
2017-06-16T03:38:22.631Z,6.94
2017-06-16T03:39:22.618Z,6.94
2017-06-16T03:40:22.608Z,6.94
2017-06-16T03:41:22.598Z,7.01
2017-06-16T03:42:22.583Z,6.96
2017-06-16T03:43:22.578Z,6.97
2017-06-16T03:44:22.561Z,6.96
2017-06-16T03:45:22.555Z,7
2017-06-16T03:46:22.541Z,6.91
2017-06-16T03:47:22.532Z,6.96
2017-06-16T03:48:22.516Z,6.82
2017-06-16T03:49:22.508Z,6.96
2017-06-16T03:50:22.496Z,6.97
2017-06-16T03:51:22.185Z,6.96
2017-06-16T03:52:22.475Z,6.97
2017-06-16T03:53:22.464Z,6.99
2017-06-16T03:54:22.455Z,6.99
2017-06-16T03:55:22.437Z,6.96
2017-06-16T03:56:22.428Z,6.96
2017-06-16T03:57:22.414Z,6.99
2017-06-16T03:58:22.402Z,6.99
2017-06-16T03:59:22.389Z,6.99
2017-06-16T04:00:22.381Z,6.99
2017-06-16T04:01:22.370Z,6.91
2017-06-16T04:02:22.356Z,7.04
2017-06-16T04:03:22.344Z,7.05
2017-06-16T04:04:22.335Z,6.94
2017-06-16T04:05:22.318Z,6.97
2017-06-16T04:06:22.313Z,7
2017-06-16T04:07:22.299Z,6.87
2017-06-16T04:08:22.287Z,6.91
2017-06-16T04:09:22.279Z,6.94
2017-06-16T04:10:22.266Z,6.99
2017-06-16T04:11:22.253Z,7.01
2017-06-16T04:12:22.242Z,6.99
2017-06-16T04:13:22.230Z,7
2017-06-16T04:14:21.915Z,7.07
2017-06-16T04:15:22.209Z,6.94
2017-06-16T04:16:22.196Z,7.01
2017-06-16T04:17:22.185Z,7.05
2017-06-16T04:18:22.177Z,6.96
2017-06-16T04:19:22.164Z,6.99
2017-06-16T04:20:22.152Z,7
2017-06-16T04:21:22.143Z,7.05
2017-06-16T04:22:22.130Z,7.07
2017-06-16T04:23:22.116Z,6.99
2017-06-16T04:24:22.107Z,7
2017-06-16T04:25:22.097Z,6.99
2017-06-16T04:26:22.083Z,7
2017-06-16T04:27:22.073Z,7.05
2017-06-16T04:28:22.059Z,6.99
2017-06-16T04:29:21.751Z,6.87
2017-06-16T04:30:22.042Z,6.99
2017-06-16T04:31:22.026Z,6.99
2017-06-16T04:32:22.019Z,6.99
2017-06-16T04:33:22.007Z,6.93
2017-06-16T04:34:21.999Z,6.97
2017-06-16T04:35:21.982Z,6.99
2017-06-16T04:36:21.973Z,7.11
2017-06-16T04:37:21.964Z,6.97
2017-06-16T04:38:21.952Z,6.97
2017-06-16T04:39:21.939Z,6.97
2017-06-16T04:40:21.929Z,7
2017-06-16T04:41:21.913Z,7.05
2017-06-16T04:42:21.906Z,6.99
2017-06-16T04:43:21.893Z,6.97
2017-06-16T04:44:21.882Z,6.99
2017-06-16T04:45:21.872Z,7
2017-06-16T04:46:21.860Z,6.82
2017-06-16T04:47:21.848Z,6.93
2017-06-16T04:48:21.837Z,6.86
2017-06-16T04:49:21.827Z,6.82
2017-06-16T04:50:21.814Z,6.97
2017-06-16T04:51:21.813Z,6.99
2017-06-16T04:52:21.490Z,6.99
2017-06-16T04:53:21.787Z,6.83
2017-06-16T04:54:21.772Z,6.91
2017-06-16T04:55:21.760Z,6.91
2017-06-16T04:56:21.746Z,6.89
2017-06-16T04:57:21.736Z,6.86
2017-06-16T04:58:21.718Z,6.86
2017-06-16T04:59:21.709Z,6.93
2017-06-16T05:00:21.700Z,6.87
2017-06-16T05:01:21.690Z,6.82
2017-06-16T05:02:21.674Z,6.9
2017-06-16T05:03:21.368Z,6.89
2017-06-16T05:04:21.653Z,6.87
2017-06-16T05:05:21.638Z,6.83
2017-06-16T05:06:21.631Z,6.83
2017-06-16T05:07:21.621Z,6.93
2017-06-16T05:08:21.604Z,6.86
2017-06-16T05:09:21.591Z,6.93
2017-06-16T05:10:21.586Z,6.93
2017-06-16T05:11:21.571Z,6.89
2017-06-16T05:12:21.559Z,6.82
2017-06-16T05:13:21.545Z,6.73
2017-06-16T05:14:21.539Z,6.75
2017-06-16T05:15:21.220Z,6.72
2017-06-16T05:16:21.514Z,6.73
2017-06-16T05:17:21.502Z,6.68
2017-06-16T05:18:21.491Z,6.73
2017-06-16T05:19:21.476Z,6.75
2017-06-16T05:20:21.173Z,6.68
2017-06-16T05:21:21.458Z,6.71
2017-06-16T05:22:21.442Z,6.69
2017-06-16T05:23:21.432Z,6.72
2017-06-16T05:24:21.425Z,6.78
2017-06-16T05:25:21.107Z,6.83
2017-06-16T05:26:21.395Z,6.69
2017-06-16T05:27:21.383Z,6.73
2017-06-16T05:28:21.373Z,6.72
2017-06-16T05:29:21.357Z,6.69
2017-06-16T05:30:21.356Z,6.81
2017-06-16T05:31:21.338Z,6.72
2017-06-16T05:32:21.328Z,6.76
2017-06-16T05:33:21.312Z,6.79
2017-06-16T05:34:21.299Z,6.61
2017-06-16T05:35:21.292Z,6.69
2017-06-16T05:36:21.279Z,6.72
2017-06-16T05:37:21.269Z,6.78
2017-06-16T05:38:21.258Z,6.65
2017-06-16T05:39:21.245Z,6.65
2017-06-16T05:40:21.229Z,6.65
2017-06-16T05:41:21.222Z,6.53
2017-06-16T05:42:21.206Z,6.54
2017-06-16T05:43:21.197Z,6.57
2017-06-16T05:44:21.183Z,6.51
2017-06-16T05:45:21.186Z,6.53
2017-06-16T05:46:21.158Z,6.6
2017-06-16T05:47:20.854Z,6.55
2017-06-16T05:48:21.134Z,6.51
2017-06-16T05:49:21.124Z,6.54
2017-06-16T05:50:21.113Z,6.53
2017-06-16T05:51:21.109Z,6.51
2017-06-16T05:52:21.089Z,6.53
2017-06-16T05:53:21.079Z,6.54
2017-06-16T05:54:21.068Z,6.5
2017-06-16T05:55:21.049Z,6.55
2017-06-16T05:56:21.040Z,6.48
2017-06-16T05:57:21.030Z,6.43
2017-06-16T05:58:21.051Z,6.42
2017-06-16T05:59:21.004Z,6.39
2017-06-16T06:00:20.992Z,6.38
2017-06-16T06:01:20.981Z,6.53
2017-06-16T06:02:20.968Z,6.43
2017-06-16T06:03:20.956Z,6.51
2017-06-16T06:04:20.944Z,6.57
2017-06-16T06:05:20.928Z,6.55
2017-06-16T06:06:20.919Z,6.4
2017-06-16T06:07:20.906Z,6.43
2017-06-16T06:08:20.897Z,6.42
2017-06-16T06:09:20.882Z,6.4
2017-06-16T06:10:20.871Z,6.32
2017-06-16T06:11:20.857Z,6.28
2017-06-16T06:12:20.851Z,6.27
2017-06-16T06:13:20.833Z,6.19
2017-06-16T06:14:20.823Z,5.98
2017-06-16T06:15:20.809Z,6.14
2017-06-16T06:16:20.800Z,6.19
2017-06-16T06:17:20.781Z,6.05
2017-06-16T06:18:20.771Z,6.11
2017-06-16T06:19:20.763Z,5.98
2017-06-16T06:20:20.743Z,5.98
2017-06-16T06:21:20.735Z,6.01
2017-06-16T06:22:20.725Z,6.02
2017-06-16T06:23:20.711Z,6.03
2017-06-16T06:24:20.698Z,6.02
2017-06-16T06:25:20.684Z,6.08
2017-06-16T06:26:20.674Z,6.11
2017-06-16T06:27:20.664Z,6.1
2017-06-16T06:28:20.649Z,6.21
2017-06-16T06:29:20.635Z,6.21
2017-06-16T06:30:20.625Z,6.24
2017-06-16T06:31:20.611Z,6.17
2017-06-16T06:32:20.601Z,6.14
2017-06-16T06:33:20.589Z,6.08
2017-06-16T06:34:20.576Z,6.21
2017-06-16T06:35:20.561Z,6.19
2017-06-16T06:36:20.553Z,6.11
2017-06-16T06:37:20.541Z,6.06
2017-06-16T06:38:20.527Z,5.95
2017-06-16T06:39:20.515Z,5.99
2017-06-16T06:40:20.502Z,6.05
2017-06-16T06:41:20.489Z,5.96
2017-06-16T06:42:20.480Z,6.02
2017-06-16T06:43:20.163Z,5.85
2017-06-16T06:44:20.458Z,5.96
2017-06-16T06:45:20.444Z,5.96
2017-06-16T06:46:20.427Z,5.96
2017-06-16T06:47:20.418Z,6.06
2017-06-16T06:48:20.403Z,5.92
2017-06-16T06:49:20.393Z,5.99
2017-06-16T06:50:20.379Z,6.13
2017-06-16T06:51:20.366Z,6.01
2017-06-16T06:52:20.352Z,6.03
2017-06-16T06:53:20.343Z,6.05
2017-06-16T06:54:20.331Z,6.08
2017-06-16T06:55:20.316Z,6.11
2017-06-16T06:56:20.305Z,6.2
2017-06-16T06:57:20.292Z,6.28
2017-06-16T06:58:20.280Z,6.25
2017-06-16T06:59:20.270Z,6.25
2017-06-16T07:00:20.257Z,6.27
2017-06-16T07:01:20.247Z,6.25
2017-06-16T07:02:19.931Z,6.35
2017-06-16T07:03:19.920Z,6.3
2017-06-16T07:04:20.206Z,6.21
2017-06-16T07:05:20.195Z,6.14
2017-06-16T07:06:20.189Z,6.14
2017-06-16T07:07:20.172Z,6.08
2017-06-16T07:08:20.159Z,6.05
2017-06-16T07:09:20.147Z,6.11
2017-06-16T07:10:20.135Z,6.13
2017-06-16T07:11:20.123Z,6.14
2017-06-16T07:12:20.110Z,6.1
2017-06-16T07:13:20.103Z,6.16
2017-06-16T07:14:20.083Z,6.3
2017-06-16T07:15:20.073Z,6.33
2017-06-16T07:16:20.102Z,6.24
2017-06-16T07:17:19.745Z,6.36
2017-06-16T07:18:20.042Z,6.28
2017-06-16T07:19:19.724Z,6.08
2017-06-16T07:20:20.017Z,6.11
2017-06-16T07:21:20.000Z,6.11
2017-06-16T07:22:19.689Z,6.03
2017-06-16T07:23:19.975Z,6.08
2017-06-16T07:24:19.965Z,6.08
2017-06-16T07:25:19.947Z,6.06
2017-06-16T07:26:19.941Z,6.13
2017-06-16T07:27:19.929Z,6.05
2017-06-16T07:28:19.910Z,6.06
2017-06-16T07:29:19.908Z,6.02
2017-06-16T07:30:19.889Z,5.98
2017-06-16T07:31:19.881Z,6.08
2017-06-16T07:32:19.872Z,6.17
2017-06-16T07:33:19.550Z,6.01
2017-06-16T07:34:19.836Z,6.03
2017-06-16T07:35:19.828Z,6.02
2017-06-16T07:36:19.816Z,6.03
2017-06-16T07:37:19.803Z,6.02
2017-06-16T07:38:19.793Z,5.99
2017-06-16T07:39:19.778Z,6.03
2017-06-16T07:40:19.768Z,5.99
2017-06-16T07:41:19.749Z,5.93
2017-06-16T07:42:19.440Z,5.93
2017-06-16T07:43:19.874Z,5.92
2017-06-16T07:44:19.715Z,5.99
2017-06-16T07:45:19.401Z,6.02
2017-06-16T07:46:19.688Z,5.96
2017-06-16T07:47:19.675Z,5.95
2017-06-16T07:48:19.659Z,6.03
2017-06-16T07:49:19.353Z,5.95
2017-06-16T07:50:19.637Z,5.98
2017-06-16T07:51:19.628Z,5.98
2017-06-16T07:52:19.612Z,5.96
2017-06-16T07:53:19.601Z,6.01
2017-06-16T07:54:19.589Z,5.9
2017-06-16T07:55:19.273Z,5.85
2017-06-16T07:56:19.562Z,5.84
2017-06-16T07:57:19.549Z,5.84
2017-06-16T07:58:19.537Z,5.83
2017-06-16T07:59:19.222Z,5.93
2017-06-16T08:00:19.513Z,5.93
2017-06-16T08:01:19.499Z,5.92
2017-06-16T08:02:19.491Z,5.84
2017-06-16T08:03:19.482Z,5.85
2017-06-16T08:04:19.465Z,5.87
2017-06-16T08:05:19.450Z,5.81
2017-06-16T08:06:19.436Z,5.85
2017-06-16T08:07:19.427Z,5.84
2017-06-16T08:08:19.413Z,5.85
2017-06-16T08:09:19.400Z,5.85
2017-06-16T08:10:19.383Z,5.93
2017-06-16T08:11:19.371Z,5.8
2017-06-16T08:12:19.367Z,5.84
2017-06-16T08:13:19.350Z,5.83
2017-06-16T08:14:19.339Z,5.98
2017-06-16T08:15:19.323Z,5.87
2017-06-16T08:16:19.309Z,5.83
2017-06-16T08:17:19.300Z,5.8
2017-06-16T08:18:19.283Z,5.8
2017-06-16T08:19:19.275Z,5.81
2017-06-16T08:20:18.961Z,5.85
2017-06-16T08:21:19.251Z,5.85
2017-06-16T08:22:19.239Z,5.88
2017-06-16T08:23:19.226Z,5.9
2017-06-16T08:24:19.215Z,5.88
2017-06-16T08:25:19.198Z,5.85
2017-06-16T08:26:19.191Z,5.88
2017-06-16T08:27:19.180Z,5.98
2017-06-16T08:28:19.171Z,5.99
2017-06-16T08:29:19.153Z,5.99
2017-06-16T08:30:19.143Z,5.96
2017-06-16T08:31:19.130Z,6.05
2017-06-16T08:32:18.821Z,5.99
2017-06-16T08:33:19.107Z,5.96
2017-06-16T08:34:19.094Z,5.87
2017-06-16T08:35:19.082Z,5.81
2017-06-16T08:36:19.066Z,5.8
2017-06-16T08:37:19.061Z,5.81
2017-06-16T08:38:19.043Z,5.8
2017-06-16T08:39:19.031Z,5.65
2017-06-16T08:40:19.023Z,5.52
2017-06-16T08:41:19.014Z,5.42
2017-06-16T08:42:19.002Z,5.4
2017-06-16T08:43:18.984Z,5.44
2017-06-16T08:44:18.975Z,5.48
2017-06-16T08:45:18.962Z,5.47
2017-06-16T08:46:18.946Z,5.49
2017-06-16T08:47:18.637Z,5.48
2017-06-16T08:48:18.919Z,5.51
2017-06-16T08:49:18.608Z,5.63
2017-06-16T08:50:18.897Z,5.58
2017-06-16T08:51:18.886Z,5.58
2017-06-16T08:52:18.876Z,5.58
2017-06-16T08:53:18.863Z,5.47
2017-06-16T08:54:18.545Z,5.42
2017-06-16T08:55:18.845Z,5.51
2017-06-16T08:56:18.820Z,5.48
2017-06-16T08:57:18.506Z,5.52
2017-06-16T08:58:18.495Z,5.66
2017-06-16T08:59:18.780Z,5.78
2017-06-16T09:00:18.768Z,5.69
2017-06-16T09:01:18.763Z,5.67
2017-06-16T09:02:18.745Z,5.73
2017-06-16T09:03:18.732Z,5.77
2017-06-16T09:04:18.418Z,5.7
2017-06-16T09:05:18.407Z,5.73
2017-06-16T09:06:18.698Z,5.74
2017-06-16T09:07:18.684Z,5.73
2017-06-16T09:08:18.668Z,5.73
2017-06-16T09:09:18.659Z,5.73
2017-06-16T09:10:18.645Z,5.74
2017-06-16T09:11:18.631Z,5.75
2017-06-16T09:12:18.315Z,5.83
2017-06-16T09:13:18.610Z,5.88
2017-06-16T09:14:18.596Z,5.99
2017-06-16T09:15:18.580Z,5.92
2017-06-16T09:16:18.564Z,5.87
2017-06-16T09:17:18.257Z,5.96
2017-06-16T09:18:18.542Z,6.01
2017-06-16T09:19:18.534Z,6.14
2017-06-16T09:20:18.522Z,6.2
2017-06-16T09:21:18.508Z,6.14
2017-06-16T09:22:18.498Z,5.99
2017-06-16T09:23:18.482Z,6.02
2017-06-16T09:24:18.468Z,6.06
2017-06-16T09:25:18.460Z,6.03
2017-06-16T09:26:18.446Z,6.05
2017-06-16T09:27:18.434Z,5.96
2017-06-16T09:28:18.418Z,5.95
2017-06-16T09:29:18.107Z,5.98
2017-06-16T09:30:18.396Z,6.01
2017-06-16T09:31:18.384Z,5.98
2017-06-16T09:32:18.374Z,6.03
2017-06-16T09:33:18.358Z,6.02
2017-06-16T09:34:18.347Z,5.96
2017-06-16T09:35:18.332Z,5.98
2017-06-16T09:36:18.320Z,6.01
2017-06-16T09:37:18.307Z,6.02
2017-06-16T09:38:17.994Z,6.01
2017-06-16T09:39:18.286Z,5.98
2017-06-16T09:40:18.272Z,5.88
2017-06-16T09:41:18.259Z,5.78
2017-06-16T09:42:18.246Z,5.81
2017-06-16T09:43:18.236Z,5.81
2017-06-16T09:44:18.222Z,5.88
2017-06-16T09:45:18.210Z,5.78
2017-06-16T09:46:18.202Z,5.81
2017-06-16T09:47:18.182Z,5.84
2017-06-16T09:48:17.882Z,5.87
2017-06-16T09:49:18.162Z,5.74
2017-06-16T09:50:18.152Z,5.81
2017-06-16T09:51:17.840Z,5.8
2017-06-16T09:52:18.130Z,5.88
2017-06-16T09:53:18.110Z,5.98
2017-06-16T09:54:18.099Z,5.87
2017-06-16T09:55:17.786Z,5.96
2017-06-16T09:56:18.074Z,5.93
2017-06-16T09:57:18.071Z,5.92
2017-06-16T09:58:18.053Z,5.87
2017-06-16T09:59:18.038Z,5.81
2017-06-16T10:00:17.724Z,5.85
2017-06-16T10:01:18.011Z,5.83
2017-06-16T10:02:18.004Z,5.74
2017-06-16T10:03:17.989Z,5.73
2017-06-16T10:04:17.978Z,5.65
2017-06-16T10:05:17.971Z,5.74
2017-06-16T10:06:17.957Z,5.81
2017-06-16T10:07:17.947Z,5.7
2017-06-16T10:08:17.929Z,5.65
2017-06-16T10:09:17.918Z,5.51
2017-06-16T10:10:17.906Z,5.42
2017-06-16T10:11:17.892Z,5.44
2017-06-16T10:12:17.879Z,5.42
2017-06-16T10:13:17.868Z,5.3
2017-06-16T10:14:17.556Z,5.33
2017-06-16T10:15:17.845Z,5.41
2017-06-16T10:16:17.830Z,5.45
2017-06-16T10:17:17.820Z,5.51
2017-06-16T10:18:17.813Z,5.62
2017-06-16T10:19:17.795Z,5.59
2017-06-16T10:20:17.786Z,5.77
2017-06-16T10:21:17.773Z,5.85
2017-06-16T10:22:17.758Z,5.8
2017-06-16T10:23:17.744Z,5.9
2017-06-16T10:24:17.736Z,5.8
2017-06-16T10:25:17.722Z,5.85
2017-06-16T10:26:17.706Z,6.02
2017-06-16T10:27:17.696Z,6.38
2017-06-16T10:28:17.685Z,6.51
2017-06-16T10:29:17.365Z,6.53
2017-06-16T10:30:17.655Z,6.64
2017-06-16T10:31:17.643Z,6.38
2017-06-16T10:32:17.633Z,6.17
2017-06-16T10:33:17.622Z,6.57
2017-06-16T10:34:17.611Z,6.5
2017-06-16T10:35:17.595Z,6.27
2017-06-16T10:36:17.580Z,6.21
2017-06-16T10:37:17.570Z,6.16
2017-06-16T10:38:17.554Z,6.28
2017-06-16T10:39:17.241Z,6.2
2017-06-16T10:40:17.532Z,6.08
2017-06-16T10:41:17.518Z,5.96
2017-06-16T10:42:17.207Z,5.87
2017-06-16T10:43:17.492Z,5.78
2017-06-16T10:44:17.482Z,5.8
2017-06-16T10:45:17.167Z,5.73
2017-06-16T10:46:17.157Z,5.66
2017-06-16T10:47:17.445Z,5.67
2017-06-16T10:48:17.126Z,5.67
2017-06-16T10:49:17.420Z,5.84
2017-06-16T10:50:17.412Z,5.93
2017-06-16T10:51:17.395Z,5.99
2017-06-16T10:52:17.385Z,6.08
2017-06-16T10:53:17.375Z,6.16
2017-06-16T10:54:17.358Z,6.13
2017-06-16T10:55:17.345Z,6.06
2017-06-16T10:56:17.033Z,6.17
2017-06-16T10:57:17.019Z,6.27
2017-06-16T10:58:17.310Z,6.25
2017-06-16T10:59:17.297Z,6.21
2017-06-16T11:00:17.284Z,6.24
2017-06-16T11:01:16.975Z,6.25
2017-06-16T11:02:17.258Z,6.19
2017-06-16T11:03:17.251Z,6.03
2017-06-16T11:04:17.238Z,6.01
2017-06-16T11:05:16.925Z,5.87
2017-06-16T11:06:16.911Z,5.83
2017-06-16T11:07:16.901Z,5.85
2017-06-16T11:08:16.891Z,5.88
2017-06-16T11:09:16.873Z,5.92
2017-06-16T11:10:17.165Z,6.03
2017-06-16T11:11:17.151Z,5.92
2017-06-16T11:12:17.138Z,5.95
2017-06-16T11:13:17.131Z,5.93
2017-06-16T11:14:17.118Z,5.8
2017-06-16T11:15:17.109Z,5.9
2017-06-16T11:16:17.095Z,5.9
2017-06-16T11:17:17.083Z,5.92
2017-06-16T11:18:17.070Z,5.81
2017-06-16T11:19:17.057Z,5.87
2017-06-16T11:20:17.043Z,5.87
2017-06-16T11:21:17.038Z,5.9
2017-06-16T11:22:17.023Z,5.92
2017-06-16T11:23:17.011Z,5.88
2017-06-16T11:24:16.998Z,5.88
2017-06-16T11:25:16.989Z,5.93
2017-06-16T11:26:16.970Z,5.93
2017-06-16T11:27:16.962Z,5.98
2017-06-16T11:28:16.951Z,5.99
2017-06-16T11:29:16.932Z,6.05
2017-06-16T11:30:16.964Z,6.06
2017-06-16T11:31:16.912Z,6.24
2017-06-16T11:32:16.599Z,6.27
2017-06-16T11:33:16.890Z,6.43
2017-06-16T11:34:16.878Z,6.42
2017-06-16T11:35:16.865Z,6.27
2017-06-16T11:36:16.852Z,6.2
2017-06-16T11:37:16.842Z,6.42
2017-06-16T11:38:16.828Z,6.38
2017-06-16T11:39:16.857Z,6.3
2017-06-16T11:40:16.808Z,6.28
2017-06-16T11:41:16.796Z,6.54
2017-06-16T11:42:16.779Z,6.51
2017-06-16T11:43:16.767Z,6.39
2017-06-16T11:44:16.761Z,6.36
2017-06-16T11:45:16.749Z,6.39
2017-06-16T11:46:16.735Z,6.39
2017-06-16T11:47:16.721Z,6.57
2017-06-16T11:48:16.707Z,6.53
2017-06-16T11:49:16.699Z,6.45
2017-06-16T11:50:16.686Z,6.4
2017-06-16T11:51:16.674Z,6.55
2017-06-16T11:52:16.665Z,6.36
2017-06-16T11:53:16.655Z,6.35
2017-06-16T11:54:16.338Z,6.51
2017-06-16T11:55:16.627Z,6.55
2017-06-16T11:56:16.613Z,6.43
2017-06-16T11:57:16.301Z,6.46
2017-06-16T11:58:16.595Z,6.32
2017-06-16T11:59:16.579Z,6.45
2017-06-16T12:00:16.569Z,6.2
2017-06-16T12:01:16.573Z,6.08
2017-06-16T12:02:16.547Z,6.02
2017-06-16T12:03:16.535Z,5.95
2017-06-16T12:04:16.219Z,6.14
2017-06-16T12:05:16.513Z,6.21
2017-06-16T12:06:16.500Z,6.16
2017-06-16T12:07:16.488Z,6.17
2017-06-16T12:08:16.474Z,6.16
2017-06-16T12:09:16.462Z,6.19
2017-06-16T12:10:16.448Z,6.27
2017-06-16T12:11:16.135Z,6.33
2017-06-16T12:12:16.430Z,6.54
2017-06-16T12:13:16.156Z,6.5
2017-06-16T12:14:16.399Z,6.55
2017-06-16T12:15:16.428Z,6.57
2017-06-16T12:16:16.376Z,6.86
2017-06-16T12:17:16.369Z,6.69
2017-06-16T12:18:16.051Z,6.55
2017-06-16T12:19:16.039Z,6.6
2017-06-16T12:20:16.330Z,6.83
2017-06-16T12:21:16.315Z,6.97
2017-06-16T12:22:16.305Z,7.05
2017-06-16T12:23:16.290Z,6.86
2017-06-16T12:24:16.280Z,6.75
2017-06-16T12:25:16.267Z,6.72
2017-06-16T12:26:16.258Z,6.6
2017-06-16T12:27:16.242Z,6.57
2017-06-16T12:28:16.254Z,6.63
2017-06-16T12:29:16.224Z,6.68
2017-06-16T12:30:15.908Z,6.79
2017-06-16T12:31:16.400Z,6.53
2017-06-16T12:32:16.187Z,6.53
2017-06-16T12:33:16.175Z,6.69
2017-06-16T12:34:16.163Z,6.86
2017-06-16T12:35:16.155Z,6.79
2017-06-16T12:36:16.138Z,6.97
2017-06-16T12:37:16.327Z,6.9
2017-06-16T12:38:16.114Z,6.51
2017-06-16T12:39:16.102Z,6.43
2017-06-16T12:40:16.128Z,6.51
2017-06-16T12:41:16.075Z,6.42
2017-06-16T12:42:16.061Z,6.5
2017-06-16T12:43:16.053Z,6.51
2017-06-16T12:44:16.038Z,6.5
2017-06-16T12:45:16.033Z,6.57
2017-06-16T12:46:16.020Z,6.58
2017-06-16T12:47:16.002Z,6.57
2017-06-16T12:48:15.995Z,6.51
2017-06-16T12:49:15.984Z,6.57
2017-06-16T12:50:15.971Z,6.76
2017-06-16T12:51:15.959Z,6.72
2017-06-16T12:52:15.950Z,6.71
2017-06-16T12:53:15.937Z,6.73
2017-06-16T12:54:15.923Z,6.71
2017-06-16T12:55:15.914Z,6.48
2017-06-16T12:56:15.609Z,6.48
2017-06-16T12:57:15.890Z,6.51
2017-06-16T12:58:15.881Z,6.5
2017-06-16T12:59:15.870Z,6.53
2017-06-16T13:00:15.857Z,6.54
2017-06-16T13:01:15.847Z,6.57
2017-06-16T13:02:15.835Z,6.5
2017-06-16T13:03:29.213Z,6.27
2017-06-16T13:04:15.809Z,6.21
2017-06-16T13:05:15.502Z,6.21
2017-06-16T13:06:15.794Z,6.11
2017-06-16T13:07:15.982Z,6.17
2017-06-16T13:08:15.765Z,6.24
2017-06-16T13:09:15.754Z,6.11
2017-06-16T13:10:15.442Z,6.2
2017-06-16T13:11:15.729Z,6.2
2017-06-16T13:12:15.719Z,6.25
2017-06-16T13:13:15.709Z,6.06
2017-06-16T13:14:15.702Z,6.02
2017-06-16T13:15:15.688Z,6.11
2017-06-16T13:16:15.676Z,6.2
2017-06-16T13:17:29.294Z,6.28
2017-06-16T13:18:15.862Z,6.33
2017-06-16T13:19:15.340Z,6.32
2017-06-16T13:20:15.630Z,6.25
2017-06-16T13:21:15.615Z,6.27